createdAt,value
2022-09-25T00:00:58.092Z,0.00
2022-09-25T00:01:57.976Z,0.00
2022-09-25T00:02:57.972Z,0.00
2022-09-25T00:03:57.918Z,0.00
2022-09-25T00:04:57.918Z,0.00
2022-09-25T00:05:57.928Z,0.00
2022-09-25T00:06:57.936Z,0.00
2022-09-25T00:07:57.931Z,0.00
2022-09-25T00:08:57.950Z,0.00
2022-09-25T00:09:57.917Z,0.00
2022-09-25T00:10:57.930Z,0.00
2022-09-25T00:11:57.940Z,0.00
2022-09-25T00:12:57.933Z,0.00
2022-09-25T00:13:57.924Z,0.00
2022-09-25T00:14:57.919Z,0.00
2022-09-25T00:15:57.987Z,0.00
2022-09-25T00:16:57.973Z,0.00
2022-09-25T00:17:57.942Z,0.00
2022-09-25T00:18:57.948Z,0.00
2022-09-25T00:19:57.924Z,0.00
2022-09-25T00:20:57.922Z,0.00
2022-09-25T00:21:57.936Z,0.00
2022-09-25T00:22:57.942Z,0.00
2022-09-25T00:23:57.950Z,0.00
2022-09-25T00:24:57.924Z,0.00
2022-09-25T00:25:57.938Z,0.00
2022-09-25T00:26:57.943Z,0.00
2022-09-25T00:27:57.923Z,0.00
2022-09-25T00:28:57.924Z,0.00
2022-09-25T00:29:57.934Z,0.00
2022-09-25T00:30:57.939Z,0.00
2022-09-25T00:31:57.940Z,0.00
2022-09-25T00:32:57.936Z,0.00
2022-09-25T00:33:57.936Z,0.00
2022-09-25T00:34:57.948Z,0.00
2022-09-25T00:35:57.928Z,0.00
2022-09-25T00:36:57.936Z,0.00
2022-09-25T00:37:57.941Z,0.00
2022-09-25T00:38:57.942Z,0.00
2022-09-25T00:39:57.929Z,0.00
2022-09-25T00:40:57.981Z,0.00
2022-09-25T00:41:57.929Z,0.00
2022-09-25T00:42:57.943Z,0.00
2022-09-25T00:43:57.937Z,0.00
2022-09-25T00:44:57.942Z,0.00
2022-09-25T00:45:58.016Z,0.00
2022-09-25T00:46:57.973Z,0.00
2022-09-25T00:47:57.952Z,0.00
2022-09-25T00:48:57.942Z,0.00
2022-09-25T00:49:57.950Z,0.00
2022-09-25T00:50:57.941Z,0.00
2022-09-25T00:51:57.939Z,0.00
2022-09-25T00:52:57.968Z,0.00
2022-09-25T00:53:57.938Z,0.00
2022-09-25T00:54:57.949Z,0.00
2022-09-25T00:55:57.966Z,0.00
2022-09-25T00:56:57.945Z,0.00
2022-09-25T00:57:57.979Z,0.00
2022-09-25T00:58:57.950Z,0.00
2022-09-25T00:59:57.942Z,0.00
2022-09-25T01:00:58.033Z,0.00
2022-09-25T01:01:57.978Z,0.00
2022-09-25T01:02:58.025Z,0.00
2022-09-25T01:03:57.955Z,0.00
2022-09-25T01:04:57.953Z,0.00
2022-09-25T01:05:57.954Z,0.00
2022-09-25T01:06:57.959Z,0.00
2022-09-25T01:07:57.966Z,0.00
2022-09-25T01:08:57.968Z,0.00
2022-09-25T01:09:57.946Z,0.00
2022-09-25T01:10:57.954Z,0.00
2022-09-25T01:11:57.965Z,0.00
2022-09-25T01:12:57.981Z,0.00
2022-09-25T01:13:57.958Z,0.00
2022-09-25T01:14:57.949Z,0.00
2022-09-25T01:15:57.966Z,0.00
2022-09-25T01:16:58.047Z,0.00
2022-09-25T01:17:57.958Z,0.00
2022-09-25T01:18:57.949Z,0.00
2022-09-25T01:19:57.977Z,0.00
2022-09-25T01:20:57.985Z,0.00
2022-09-25T01:21:57.969Z,0.00
2022-09-25T01:22:57.971Z,0.00
2022-09-25T01:23:57.974Z,0.00
2022-09-25T01:24:58.038Z,0.00
2022-09-25T01:25:57.951Z,0.00
2022-09-25T01:26:57.987Z,0.00
2022-09-25T01:27:57.967Z,0.00
2022-09-25T01:28:57.975Z,0.00
2022-09-25T01:29:57.959Z,0.00
2022-09-25T01:30:57.988Z,0.00
2022-09-25T01:31:57.967Z,0.00
2022-09-25T01:32:58.010Z,0.00
2022-09-25T01:33:57.980Z,0.00
2022-09-25T01:34:57.960Z,0.00
2022-09-25T01:35:57.959Z,0.00
2022-09-25T01:36:57.958Z,0.00
2022-09-25T01:37:57.962Z,0.00
2022-09-25T01:38:57.969Z,0.00
2022-09-25T01:39:57.981Z,0.00
2022-09-25T01:40:58.152Z,0.00
2022-09-25T01:41:57.969Z,0.00
2022-09-25T01:42:57.979Z,0.00
2022-09-25T01:43:57.978Z,0.00
2022-09-25T01:44:57.980Z,0.00
2022-09-25T01:45:58.030Z,0.00
2022-09-25T01:46:57.972Z,0.00
2022-09-25T01:47:57.976Z,0.00
2022-09-25T01:48:57.972Z,0.00
2022-09-25T01:49:57.962Z,0.00
2022-09-25T01:50:57.988Z,0.00
2022-09-25T01:51:57.963Z,0.00
2022-09-25T01:52:57.973Z,0.00
2022-09-25T01:53:57.977Z,0.00
2022-09-25T01:54:57.980Z,0.00
2022-09-25T01:55:57.993Z,0.00
2022-09-25T01:56:58.018Z,0.00
2022-09-25T01:57:57.973Z,0.00
2022-09-25T01:58:57.984Z,0.00
2022-09-25T01:59:57.976Z,0.00
2022-09-25T02:00:58.040Z,0.00
2022-09-25T02:01:57.989Z,0.00
2022-09-25T02:02:58.012Z,0.00
2022-09-25T02:03:58.000Z,0.00
2022-09-25T02:04:57.966Z,0.00
2022-09-25T02:05:57.983Z,0.00
2022-09-25T02:06:57.987Z,0.00
2022-09-25T02:07:57.994Z,0.00
2022-09-25T02:08:57.980Z,0.00
2022-09-25T02:09:57.987Z,0.00
2022-09-25T02:10:57.977Z,0.00
2022-09-25T02:11:57.997Z,0.00
2022-09-25T02:12:57.990Z,0.00
2022-09-25T02:13:57.991Z,0.00
2022-09-25T02:14:57.997Z,0.00
2022-09-25T02:15:57.999Z,0.00
2022-09-25T02:16:58.076Z,0.00
2022-09-25T02:17:57.998Z,0.00
2022-09-25T02:18:58.007Z,0.00
2022-09-25T02:19:57.976Z,0.00
2022-09-25T02:20:57.974Z,0.00
2022-09-25T02:21:57.988Z,0.00
2022-09-25T02:22:57.979Z,0.00
2022-09-25T02:23:58.003Z,0.00
2022-09-25T02:24:59.309Z,0.00
2022-09-25T02:25:57.982Z,0.00
2022-09-25T02:26:57.984Z,0.00
2022-09-25T02:27:57.992Z,0.00
2022-09-25T02:28:58.011Z,0.00
2022-09-25T02:29:58.030Z,0.00
2022-09-25T02:30:58.021Z,0.00
2022-09-25T02:31:58.004Z,0.00
2022-09-25T02:32:58.011Z,0.00
2022-09-25T02:33:58.002Z,0.00
2022-09-25T02:34:58.005Z,0.00
2022-09-25T02:35:57.995Z,0.00
2022-09-25T02:36:58.000Z,0.00
2022-09-25T02:37:57.997Z,0.00
2022-09-25T02:38:57.994Z,0.00
2022-09-25T02:39:58.052Z,0.00
2022-09-25T02:40:58.034Z,0.00
2022-09-25T02:41:58.000Z,0.00
2022-09-25T02:42:57.993Z,0.00
2022-09-25T02:43:58.001Z,0.00
2022-09-25T02:44:58.013Z,0.00
2022-09-25T02:45:58.036Z,0.00
2022-09-25T02:46:57.996Z,0.00
2022-09-25T02:47:57.992Z,0.00
2022-09-25T02:48:57.998Z,0.00
2022-09-25T02:49:57.995Z,0.00
2022-09-25T02:50:58.013Z,0.00
2022-09-25T02:51:58.002Z,0.00
2022-09-25T02:52:58.022Z,0.00
2022-09-25T02:53:58.001Z,0.00
2022-09-25T02:54:57.991Z,0.00
2022-09-25T02:55:58.025Z,0.00
2022-09-25T02:57:03.571Z,0.00
2022-09-25T02:57:58.001Z,0.00
2022-09-25T02:58:57.996Z,0.00
2022-09-25T02:59:58.008Z,0.00
2022-09-25T03:00:58.162Z,0.00
2022-09-25T03:01:58.051Z,0.00
2022-09-25T03:02:58.050Z,0.00
2022-09-25T03:03:58.018Z,0.00
2022-09-25T03:04:57.995Z,0.00
2022-09-25T03:05:58.000Z,0.00
2022-09-25T03:06:58.024Z,0.00
2022-09-25T03:07:58.010Z,0.00
2022-09-25T03:08:57.996Z,0.00
2022-09-25T03:09:57.999Z,0.00
2022-09-25T03:10:58.008Z,0.00
2022-09-25T03:11:58.007Z,0.00
2022-09-25T03:12:58.017Z,0.00
2022-09-25T03:13:58.038Z,0.00
2022-09-25T03:14:57.997Z,0.00
2022-09-25T03:15:58.076Z,0.00
2022-09-25T03:16:58.143Z,0.00
2022-09-25T03:17:58.003Z,0.00
2022-09-25T03:18:58.008Z,0.00
2022-09-25T03:19:58.044Z,0.00
2022-09-25T03:20:58.006Z,0.00
2022-09-25T03:21:58.014Z,0.00
2022-09-25T03:22:58.035Z,0.00
2022-09-25T03:23:57.999Z,0.00
2022-09-25T03:24:58.012Z,0.00
2022-09-25T03:25:58.012Z,0.00
2022-09-25T03:26:58.020Z,0.00
2022-09-25T03:27:58.003Z,0.00
2022-09-25T03:28:58.019Z,0.00
2022-09-25T03:29:57.999Z,0.00
2022-09-25T03:30:58.048Z,0.00
2022-09-25T03:31:58.017Z,0.00
2022-09-25T03:32:58.009Z,0.00
2022-09-25T03:33:58.038Z,0.00
2022-09-25T03:34:58.014Z,0.00
2022-09-25T03:35:58.010Z,0.00
2022-09-25T03:36:58.024Z,0.00
2022-09-25T03:37:58.025Z,0.00
2022-09-25T03:38:58.037Z,0.00
2022-09-25T03:39:58.028Z,0.00
2022-09-25T03:40:58.040Z,0.00
2022-09-25T03:41:58.008Z,0.00
2022-09-25T03:42:58.017Z,0.00
2022-09-25T03:43:58.047Z,0.00
2022-09-25T03:44:58.002Z,0.00
2022-09-25T03:45:58.030Z,0.00
2022-09-25T03:46:58.018Z,0.00
2022-09-25T03:47:58.006Z,0.00
2022-09-25T03:48:58.140Z,0.00
2022-09-25T03:49:58.022Z,0.00
2022-09-25T03:50:58.006Z,0.00
2022-09-25T03:51:58.032Z,0.00
2022-09-25T03:52:58.017Z,0.00
2022-09-25T03:53:58.028Z,0.00
2022-09-25T03:54:58.039Z,0.00
2022-09-25T03:55:58.012Z,0.00
2022-09-25T03:56:58.016Z,0.00
2022-09-25T03:57:58.010Z,0.00
2022-09-25T03:58:58.032Z,0.00
2022-09-25T03:59:58.042Z,0.00
2022-09-25T04:00:58.091Z,0.00
2022-09-25T04:01:58.044Z,0.00
2022-09-25T04:02:58.065Z,0.00
2022-09-25T04:03:58.031Z,0.00
2022-09-25T04:04:58.025Z,0.00
2022-09-25T04:05:58.026Z,0.00
2022-09-25T04:06:58.015Z,0.00
2022-09-25T04:07:58.024Z,0.00
2022-09-25T04:08:58.032Z,0.00
2022-09-25T04:09:58.038Z,0.00
2022-09-25T04:10:58.013Z,0.00
2022-09-25T04:11:58.052Z,0.00
2022-09-25T04:12:58.063Z,0.00
2022-09-25T04:13:58.025Z,0.00
2022-09-25T04:14:58.016Z,0.00
2022-09-25T04:15:58.050Z,0.00
2022-09-25T04:16:58.018Z,0.00
2022-09-25T04:18:01.120Z,0.00
2022-09-25T04:18:58.019Z,0.00
2022-09-25T04:19:58.020Z,0.00
2022-09-25T04:20:58.013Z,0.00
2022-09-25T04:21:58.017Z,0.00
2022-09-25T04:22:58.025Z,0.00
2022-09-25T04:23:58.042Z,0.00
2022-09-25T04:24:58.043Z,0.00
2022-09-25T04:25:58.031Z,0.00
2022-09-25T04:26:58.018Z,0.00
2022-09-25T04:27:58.028Z,0.00
2022-09-25T04:28:58.044Z,0.00
2022-09-25T04:29:58.031Z,0.00
2022-09-25T04:30:58.034Z,0.00
2022-09-25T04:31:58.071Z,0.00
2022-09-25T04:32:58.027Z,0.00
2022-09-25T04:33:58.030Z,0.00
2022-09-25T04:34:58.030Z,0.00
2022-09-25T04:35:58.025Z,0.00
2022-09-25T04:37:08.003Z,0.00
2022-09-25T04:37:58.522Z,0.00
2022-09-25T04:38:58.823Z,0.00
2022-09-25T04:39:58.795Z,0.00
2022-09-25T04:40:58.914Z,0.00
2022-09-25T04:41:58.958Z,0.00
2022-09-25T04:42:58.927Z,0.00
2022-09-25T04:43:58.862Z,0.00
2022-09-25T04:44:58.749Z,0.00
2022-09-25T04:45:58.913Z,0.00
2022-09-25T04:46:58.677Z,0.00
2022-09-25T04:47:58.913Z,0.00
2022-09-25T04:48:58.782Z,0.00
2022-09-25T04:49:58.152Z,0.00
2022-09-25T04:50:58.055Z,0.00
2022-09-25T04:51:58.725Z,0.00
2022-09-25T04:52:58.046Z,0.00
2022-09-25T04:53:58.022Z,0.00
2022-09-25T04:54:58.044Z,0.00
2022-09-25T04:55:58.033Z,0.00
2022-09-25T04:56:58.048Z,0.00
2022-09-25T04:57:59.348Z,0.00
2022-09-25T04:58:58.040Z,0.00
2022-09-25T04:59:58.032Z,0.00
2022-09-25T05:00:58.099Z,0.00
2022-09-25T05:01:58.162Z,0.00
2022-09-25T05:02:58.154Z,0.00
2022-09-25T05:03:58.035Z,0.00
2022-09-25T05:04:58.064Z,0.00
2022-09-25T05:05:58.042Z,0.00
2022-09-25T05:06:58.059Z,0.00
2022-09-25T05:07:58.041Z,0.00
2022-09-25T05:08:58.026Z,0.00
2022-09-25T05:09:58.051Z,0.00
2022-09-25T05:10:58.043Z,0.00
2022-09-25T05:11:58.033Z,0.00
2022-09-25T05:12:58.054Z,0.00
2022-09-25T05:13:58.078Z,0.00
2022-09-25T05:14:58.033Z,0.00
2022-09-25T05:15:58.219Z,0.00
2022-09-25T05:16:58.052Z,0.00
2022-09-25T05:17:58.048Z,0.00
2022-09-25T05:18:58.045Z,0.00
2022-09-25T05:19:58.101Z,0.00
2022-09-25T05:20:58.057Z,0.00
2022-09-25T05:21:58.039Z,0.00
2022-09-25T05:22:58.043Z,5.63
2022-09-25T05:23:58.056Z,5.63
2022-09-25T05:24:59.133Z,5.63
2022-09-25T05:25:58.048Z,5.63
2022-09-25T05:26:58.044Z,5.63
2022-09-25T05:27:58.042Z,5.63
2022-09-25T05:28:58.057Z,5.63
2022-09-25T05:29:58.045Z,5.63
2022-09-25T05:30:58.061Z,5.63
2022-09-25T05:31:58.033Z,5.63
2022-09-25T05:32:58.062Z,5.63
2022-09-25T05:33:58.053Z,11.25
2022-09-25T05:34:58.057Z,11.25
2022-09-25T05:35:58.078Z,11.25
2022-09-25T05:36:58.042Z,11.25
2022-09-25T05:37:58.045Z,11.25
2022-09-25T05:38:58.035Z,16.88
2022-09-25T05:39:58.059Z,16.88
2022-09-25T05:40:58.071Z,16.88
2022-09-25T05:41:58.048Z,16.88
2022-09-25T05:42:58.068Z,16.88
2022-09-25T05:43:58.066Z,16.88
2022-09-25T05:44:59.538Z,16.88
2022-09-25T05:45:58.119Z,16.88
2022-09-25T05:46:58.044Z,16.88
2022-09-25T05:47:58.042Z,16.88
2022-09-25T05:48:58.038Z,16.88
2022-09-25T05:49:58.054Z,22.50
2022-09-25T05:50:58.071Z,22.50
2022-09-25T05:51:58.062Z,22.50
2022-09-25T05:52:58.037Z,22.50
2022-09-25T05:53:58.044Z,22.50
2022-09-25T05:54:58.051Z,22.50
2022-09-25T05:55:58.097Z,22.50
2022-09-25T05:56:58.066Z,22.50
2022-09-25T05:57:58.059Z,22.50
2022-09-25T05:58:58.038Z,22.50
2022-09-25T05:59:58.044Z,22.50
2022-09-25T06:00:58.052Z,22.50
2022-09-25T06:01:58.113Z,22.50
2022-09-25T06:02:58.149Z,22.50
2022-09-25T06:03:58.055Z,22.50
2022-09-25T06:04:58.052Z,28.13
2022-09-25T06:05:58.066Z,28.13
2022-09-25T06:06:58.037Z,28.13
2022-09-25T06:07:58.047Z,33.75
2022-09-25T06:08:58.071Z,50.63
2022-09-25T06:09:58.049Z,39.38
2022-09-25T06:10:58.047Z,39.38
2022-09-25T06:11:58.056Z,50.63
2022-09-25T06:12:58.038Z,78.75
2022-09-25T06:13:58.064Z,78.75
2022-09-25T06:14:58.050Z,84.38
2022-09-25T06:15:58.087Z,106.88
2022-09-25T06:16:58.050Z,73.13
2022-09-25T06:17:58.097Z,45.00
2022-09-25T06:18:58.062Z,39.38
2022-09-25T06:19:58.068Z,39.38
2022-09-25T06:20:58.054Z,39.38
2022-09-25T06:21:58.061Z,33.75
2022-09-25T06:22:58.053Z,33.75
2022-09-25T06:23:58.049Z,33.75
2022-09-25T06:24:58.053Z,33.75
2022-09-25T06:25:58.057Z,33.75
2022-09-25T06:26:58.057Z,39.38
2022-09-25T06:27:58.046Z,39.38
2022-09-25T06:29:02.867Z,39.38
2022-09-25T06:29:58.058Z,39.38
2022-09-25T06:30:58.134Z,39.38
2022-09-25T06:31:58.051Z,39.38
2022-09-25T06:32:58.045Z,39.38
2022-09-25T06:33:58.044Z,45.00
2022-09-25T06:34:58.054Z,45.00
2022-09-25T06:35:58.073Z,45.00
2022-09-25T06:36:58.178Z,45.00
2022-09-25T06:37:58.065Z,39.38
2022-09-25T06:38:58.058Z,39.38
2022-09-25T06:39:58.045Z,39.38
2022-09-25T06:41:00.066Z,45.00
2022-09-25T06:41:58.058Z,39.38
2022-09-25T06:42:58.065Z,39.38
2022-09-25T06:43:58.054Z,39.38
2022-09-25T06:44:58.050Z,39.38
2022-09-25T06:45:58.086Z,33.75
2022-09-25T06:46:58.062Z,33.75
2022-09-25T06:47:58.048Z,28.13
2022-09-25T06:48:58.047Z,28.13
2022-09-25T06:49:58.063Z,22.50
2022-09-25T06:50:58.059Z,22.50
2022-09-25T06:51:58.074Z,22.50
2022-09-25T06:52:58.086Z,22.50
2022-09-25T06:53:58.046Z,22.50
2022-09-25T06:54:58.061Z,22.50
2022-09-25T06:55:58.050Z,22.50
2022-09-25T06:56:58.096Z,22.50
2022-09-25T06:57:58.048Z,22.50
2022-09-25T06:58:58.057Z,22.50
2022-09-25T06:59:58.049Z,22.50
2022-09-25T07:00:58.064Z,22.50
2022-09-25T07:01:58.142Z,22.50
2022-09-25T07:02:58.182Z,22.50
2022-09-25T07:03:58.088Z,22.50
2022-09-25T07:04:58.059Z,28.13
2022-09-25T07:05:58.060Z,28.13
2022-09-25T07:06:58.069Z,28.13
2022-09-25T07:07:58.073Z,28.13
2022-09-25T07:08:58.069Z,28.13
2022-09-25T07:09:58.049Z,28.13
2022-09-25T07:10:58.076Z,28.13
2022-09-25T07:11:58.053Z,28.13
2022-09-25T07:12:58.068Z,28.13
2022-09-25T07:13:58.111Z,28.13
2022-09-25T07:14:58.081Z,28.13
2022-09-25T07:15:58.130Z,22.50
2022-09-25T07:16:58.068Z,22.50
2022-09-25T07:17:58.074Z,22.50
2022-09-25T07:18:58.087Z,28.13
2022-09-25T07:19:58.095Z,28.13
2022-09-25T07:20:58.083Z,28.13
2022-09-25T07:21:58.063Z,33.75
2022-09-25T07:22:58.100Z,33.75
2022-09-25T07:23:58.067Z,33.75
2022-09-25T07:24:58.082Z,33.75
2022-09-25T07:25:58.068Z,33.75
2022-09-25T07:26:58.063Z,33.75
2022-09-25T07:27:58.073Z,33.75
2022-09-25T07:28:58.061Z,33.75
2022-09-25T07:29:58.054Z,33.75
2022-09-25T07:30:58.148Z,33.75
2022-09-25T07:31:58.072Z,33.75
2022-09-25T07:33:00.255Z,33.75
2022-09-25T07:33:58.071Z,33.75
2022-09-25T07:34:58.057Z,39.38
2022-09-25T07:35:58.078Z,39.38
2022-09-25T07:36:58.069Z,39.38
2022-09-25T07:37:58.055Z,45.00
2022-09-25T07:38:58.083Z,45.00
2022-09-25T07:39:58.086Z,50.63
2022-09-25T07:40:58.165Z,50.63
2022-09-25T07:41:58.066Z,56.25
2022-09-25T07:42:58.073Z,56.25
2022-09-25T07:44:58.058Z,56.25
2022-09-25T07:45:58.090Z,56.25
2022-09-25T07:46:58.077Z,56.25
2022-09-25T07:47:58.078Z,56.25
2022-09-25T07:48:58.061Z,50.63
2022-09-25T07:49:58.087Z,50.63
2022-09-25T07:50:58.072Z,50.63
2022-09-25T07:51:58.085Z,50.63
2022-09-25T07:52:58.087Z,50.63
2022-09-25T07:53:58.060Z,50.63
2022-09-25T07:54:58.062Z,45.00
2022-09-25T07:56:01.033Z,45.00
2022-09-25T07:56:58.098Z,39.38
2022-09-25T07:57:58.093Z,39.38
2022-09-25T07:58:58.082Z,39.38
2022-09-25T07:59:58.067Z,33.75
2022-09-25T08:00:58.083Z,33.75
2022-09-25T08:01:58.269Z,33.75
2022-09-25T08:02:58.124Z,33.75
2022-09-25T08:03:58.114Z,33.75
2022-09-25T08:04:58.104Z,33.75
2022-09-25T08:05:58.687Z,33.75
2022-09-25T08:06:58.098Z,33.75
2022-09-25T08:07:58.086Z,39.38
2022-09-25T08:08:58.107Z,39.38
2022-09-25T08:09:58.098Z,45.00
2022-09-25T08:10:58.170Z,45.00
2022-09-25T08:11:58.071Z,50.63
2022-09-25T08:12:58.076Z,50.63
2022-09-25T08:13:58.072Z,56.25
2022-09-25T08:14:58.108Z,56.25
2022-09-25T08:15:58.124Z,61.88
2022-09-25T08:16:58.093Z,61.88
2022-09-25T08:17:58.092Z,56.25
2022-09-25T08:18:58.101Z,56.25
2022-09-25T08:19:58.080Z,50.63
2022-09-25T08:20:58.125Z,45.00
2022-09-25T08:21:58.090Z,45.00
2022-09-25T08:22:58.091Z,45.00
2022-09-25T08:23:58.091Z,45.00
2022-09-25T08:24:58.093Z,45.00
2022-09-25T08:25:58.101Z,50.63
2022-09-25T08:26:58.102Z,50.63
2022-09-25T08:27:58.089Z,56.25
2022-09-25T08:28:58.103Z,56.25
2022-09-25T08:29:58.089Z,56.25
2022-09-25T08:30:58.149Z,61.88
2022-09-25T08:31:58.091Z,61.88
2022-09-25T08:32:58.092Z,78.75
2022-09-25T08:34:09.708Z,67.50
2022-09-25T08:34:58.123Z,73.13
2022-09-25T08:35:58.088Z,78.75
2022-09-25T08:36:58.083Z,84.38
2022-09-25T08:37:58.091Z,84.38
2022-09-25T08:38:58.086Z,95.63
2022-09-25T08:39:58.098Z,101.25
2022-09-25T08:40:58.151Z,112.50
2022-09-25T08:41:58.092Z,123.75
2022-09-25T08:42:58.105Z,168.75
2022-09-25T08:43:58.095Z,180.00
2022-09-25T08:45:19.916Z,157.50
2022-09-25T08:45:58.135Z,135.00
2022-09-25T08:46:58.112Z,123.75
2022-09-25T08:47:58.097Z,112.50
2022-09-25T08:48:58.092Z,95.63
2022-09-25T08:49:58.297Z,84.38
2022-09-25T08:50:58.102Z,78.75
2022-09-25T08:51:58.105Z,78.75
2022-09-25T08:52:58.104Z,73.13
2022-09-25T08:53:58.096Z,67.50
2022-09-25T08:54:58.131Z,67.50
2022-09-25T08:55:58.114Z,61.88
2022-09-25T08:56:58.114Z,61.88
2022-09-25T08:57:58.121Z,61.88
2022-09-25T08:58:58.122Z,61.88
2022-09-25T09:00:01.527Z,61.88
2022-09-25T09:00:58.214Z,61.88
2022-09-25T09:01:58.117Z,67.50
2022-09-25T09:02:58.170Z,67.50
2022-09-25T09:04:06.281Z,67.50
2022-09-25T09:04:58.124Z,73.13
2022-09-25T09:05:58.147Z,78.75
2022-09-25T09:07:25.149Z,78.75
2022-09-25T09:07:58.114Z,78.75
2022-09-25T09:08:58.126Z,78.75
2022-09-25T09:09:58.129Z,78.75
2022-09-25T09:10:58.142Z,84.38
2022-09-25T09:11:58.142Z,90.00
2022-09-25T09:12:58.137Z,84.38
2022-09-25T09:13:58.135Z,78.75
2022-09-25T09:14:58.148Z,67.50
2022-09-25T09:15:58.192Z,67.50
2022-09-25T09:16:58.158Z,67.50
2022-09-25T09:17:58.159Z,73.13
2022-09-25T09:18:58.135Z,78.75
2022-09-25T09:19:58.137Z,78.75
2022-09-25T09:20:58.161Z,84.38
2022-09-25T09:21:58.139Z,84.38
2022-09-25T09:22:58.180Z,84.38
2022-09-25T09:23:58.143Z,78.75
2022-09-25T09:24:58.150Z,78.75
2022-09-25T09:25:58.151Z,84.38
2022-09-25T09:26:58.152Z,84.38
2022-09-25T09:27:58.174Z,90.00
2022-09-25T09:28:58.160Z,95.63
2022-09-25T09:30:02.951Z,106.88
2022-09-25T09:30:58.207Z,118.13
2022-09-25T09:31:58.162Z,135.00
2022-09-25T09:32:58.157Z,146.25
2022-09-25T09:33:58.217Z,168.75
2022-09-25T09:35:07.036Z,168.75
2022-09-25T09:35:58.159Z,163.13
2022-09-25T09:36:58.154Z,174.38
2022-09-25T09:37:58.164Z,196.88
2022-09-25T09:38:58.181Z,219.38
2022-09-25T09:39:58.158Z,331.88
2022-09-25T09:40:58.276Z,225.00
2022-09-25T09:41:58.158Z,196.88
2022-09-25T09:42:58.179Z,202.50
2022-09-25T09:43:58.264Z,208.13
2022-09-25T09:44:58.164Z,219.38
2022-09-25T09:45:58.209Z,219.38
2022-09-25T09:46:58.174Z,219.38
2022-09-25T09:47:58.186Z,241.88
2022-09-25T09:48:58.200Z,236.25
2022-09-25T09:49:58.174Z,247.50
2022-09-25T09:50:58.199Z,213.75
2022-09-25T09:51:58.181Z,213.75
2022-09-25T09:52:58.205Z,230.63
2022-09-25T09:53:58.202Z,230.63
2022-09-25T09:54:58.211Z,219.38
2022-09-25T09:55:58.208Z,213.75
2022-09-25T09:56:58.218Z,213.75
2022-09-25T09:57:58.198Z,213.75
2022-09-25T09:58:58.288Z,219.38
2022-09-25T10:00:03.707Z,236.25
2022-09-25T10:01:06.967Z,264.38
2022-09-25T10:01:58.378Z,275.63
2022-09-25T10:02:58.364Z,393.75
2022-09-25T10:03:58.236Z,382.50
2022-09-25T10:04:58.227Z,326.25
2022-09-25T10:05:58.212Z,275.63
2022-09-25T10:06:58.226Z,270.00
2022-09-25T10:07:58.226Z,258.75
2022-09-25T10:08:58.248Z,241.88
2022-09-25T10:09:58.245Z,247.50
2022-09-25T10:10:58.234Z,253.13
2022-09-25T10:11:58.243Z,286.88
2022-09-25T10:13:00.869Z,292.50
2022-09-25T10:13:58.239Z,286.88
2022-09-25T10:14:58.244Z,315.00
2022-09-25T10:15:58.311Z,247.50
2022-09-25T10:16:58.254Z,208.13
2022-09-25T10:17:58.251Z,202.50
2022-09-25T10:18:58.272Z,213.75
2022-09-25T10:19:58.245Z,236.25
2022-09-25T10:20:58.279Z,258.75
2022-09-25T10:21:58.285Z,376.88
2022-09-25T10:22:58.270Z,337.50
2022-09-25T10:23:58.260Z,410.63
2022-09-25T10:24:58.263Z,556.88
2022-09-25T10:25:58.284Z,343.13
2022-09-25T10:26:58.297Z,320.63
2022-09-25T10:27:58.278Z,410.63
2022-09-25T10:28:58.289Z,376.88
2022-09-25T10:29:58.289Z,405.00
2022-09-25T10:30:58.494Z,416.25
2022-09-25T10:31:58.304Z,365.63
2022-09-25T10:32:58.474Z,275.63
2022-09-25T10:33:58.298Z,230.63
2022-09-25T10:34:58.308Z,213.75
2022-09-25T10:35:58.309Z,196.88
2022-09-25T10:37:05.375Z,180.00
2022-09-25T10:37:58.304Z,163.13
2022-09-25T10:39:18.045Z,163.13
2022-09-25T10:39:58.340Z,163.13
2022-09-25T10:40:58.429Z,151.88
2022-09-25T10:41:58.338Z,135.00
2022-09-25T10:42:58.344Z,112.50
2022-09-25T10:43:58.340Z,106.88
2022-09-25T10:44:58.421Z,101.25
2022-09-25T10:45:58.415Z,106.88
2022-09-25T10:46:58.356Z,112.50
2022-09-25T10:47:58.350Z,123.75
2022-09-25T10:48:58.369Z,95.63
2022-09-25T10:49:58.358Z,90.00
2022-09-25T10:50:58.367Z,84.38
2022-09-25T10:51:58.356Z,90.00
2022-09-25T10:52:58.361Z,90.00
2022-09-25T10:53:58.385Z,95.63
2022-09-25T10:54:58.378Z,101.25
2022-09-25T10:55:58.381Z,90.00
2022-09-25T10:56:58.390Z,84.38
2022-09-25T10:57:58.408Z,78.75
2022-09-25T10:58:58.407Z,78.75
2022-09-25T10:59:58.397Z,101.25
2022-09-25T11:00:58.481Z,123.75
2022-09-25T11:01:58.499Z,185.63
2022-09-25T11:02:58.464Z,230.63
2022-09-25T11:03:58.410Z,208.13
2022-09-25T11:04:58.413Z,236.25
2022-09-25T11:05:58.423Z,202.50
2022-09-25T11:06:58.435Z,185.63
2022-09-25T11:07:58.410Z,196.88
2022-09-25T11:08:58.437Z,292.50
2022-09-25T11:10:00.392Z,365.63
2022-09-25T11:10:58.419Z,354.38
2022-09-25T11:11:58.439Z,382.50
2022-09-25T11:12:58.438Z,365.63
2022-09-25T11:13:58.451Z,298.13
2022-09-25T11:14:58.447Z,247.50
2022-09-25T11:15:58.451Z,219.38
2022-09-25T11:16:58.527Z,208.13
2022-09-25T11:17:58.443Z,196.88
2022-09-25T11:19:03.868Z,219.38
2022-09-25T11:19:58.478Z,225.00
2022-09-25T11:20:58.465Z,208.13
2022-09-25T11:21:58.466Z,225.00
2022-09-25T11:22:58.475Z,219.38
2022-09-25T11:23:58.464Z,225.00
2022-09-25T11:25:01.324Z,219.38
2022-09-25T11:25:58.488Z,208.13
2022-09-25T11:26:58.492Z,208.13
2022-09-25T11:27:58.480Z,219.38
2022-09-25T11:28:58.495Z,219.38
2022-09-25T11:29:58.502Z,225.00
2022-09-25T11:30:58.536Z,236.25
2022-09-25T11:31:58.495Z,253.13
2022-09-25T11:32:58.504Z,241.88
2022-09-25T11:33:58.530Z,258.75
2022-09-25T11:34:58.520Z,258.75
2022-09-25T11:35:58.531Z,236.25
2022-09-25T11:36:58.530Z,236.25
2022-09-25T11:37:58.525Z,236.25
2022-09-25T11:38:58.534Z,236.25
2022-09-25T11:39:58.557Z,230.63
2022-09-25T11:40:58.591Z,298.13
2022-09-25T11:41:58.566Z,286.88
2022-09-25T11:42:58.544Z,292.50
2022-09-25T11:43:58.574Z,292.50
2022-09-25T11:44:58.557Z,286.88
2022-09-25T11:45:58.629Z,275.63
2022-09-25T11:46:58.559Z,264.38
2022-09-25T11:47:58.571Z,253.13
2022-09-25T11:48:58.586Z,236.25
2022-09-25T11:49:58.575Z,219.38
2022-09-25T11:50:58.596Z,208.13
2022-09-25T11:51:58.598Z,202.50
2022-09-25T11:52:58.578Z,196.88
2022-09-25T11:54:17.923Z,191.25
2022-09-25T11:54:58.617Z,191.25
2022-09-25T11:55:58.608Z,185.63
2022-09-25T11:56:58.606Z,168.75
2022-09-25T11:57:58.608Z,180.00
2022-09-25T11:58:58.615Z,174.38
2022-09-25T11:59:58.637Z,180.00
2022-09-25T12:00:58.617Z,191.25
2022-09-25T12:01:58.633Z,185.63
2022-09-25T12:02:58.624Z,174.38
2022-09-25T12:03:58.652Z,163.13
2022-09-25T12:04:58.633Z,151.88
2022-09-25T12:05:58.642Z,146.25
2022-09-25T12:06:58.657Z,140.63
2022-09-25T12:07:58.647Z,90.00
2022-09-25T12:08:58.675Z,78.75
2022-09-25T12:09:58.679Z,78.75
2022-09-25T12:10:58.687Z,73.13
2022-09-25T12:11:58.680Z,90.00
2022-09-25T12:12:58.682Z,90.00
2022-09-25T12:13:58.678Z,95.63
2022-09-25T12:14:58.683Z,106.88
2022-09-25T12:15:58.705Z,129.38
2022-09-25T12:16:58.704Z,151.88
2022-09-25T12:17:58.707Z,174.38
2022-09-25T12:18:58.728Z,140.63
2022-09-25T12:19:58.724Z,146.25
2022-09-25T12:20:58.728Z,168.75
2022-09-25T12:21:58.729Z,168.75
2022-09-25T12:22:58.738Z,163.13
2022-09-25T12:23:58.742Z,157.50
2022-09-25T12:24:58.730Z,157.50
2022-09-25T12:25:58.734Z,151.88
2022-09-25T12:26:58.749Z,140.63
2022-09-25T12:27:58.747Z,135.00
2022-09-25T12:28:58.763Z,123.75
2022-09-25T12:29:58.777Z,112.50
2022-09-25T12:31:01.271Z,112.50
2022-09-25T12:31:58.767Z,112.50
2022-09-25T12:32:58.780Z,106.88
2022-09-25T12:33:58.788Z,106.88
2022-09-25T12:34:58.810Z,106.88
2022-09-25T12:35:58.806Z,106.88
2022-09-25T12:36:58.806Z,106.88
2022-09-25T12:37:58.818Z,101.25
2022-09-25T12:38:58.808Z,95.63
2022-09-25T12:39:58.821Z,90.00
2022-09-25T12:40:58.831Z,95.63
2022-09-25T12:41:58.835Z,84.38
2022-09-25T12:42:58.819Z,84.38
2022-09-25T12:43:58.821Z,84.38
2022-09-25T12:44:58.834Z,73.13
2022-09-25T12:45:58.920Z,67.50
2022-09-25T12:46:58.845Z,78.75
2022-09-25T12:47:58.845Z,78.75
2022-09-25T12:48:58.848Z,73.13
2022-09-25T12:49:58.862Z,78.75
2022-09-25T12:51:04.303Z,78.75
2022-09-25T12:51:58.890Z,84.38
2022-09-25T12:52:58.880Z,90.00
2022-09-25T12:53:58.882Z,78.75
2022-09-25T12:54:58.870Z,84.38
2022-09-25T12:55:58.910Z,84.38
2022-09-25T12:56:58.915Z,67.50
2022-09-25T12:57:58.900Z,67.50
2022-09-25T12:58:58.896Z,67.50